CheckWX is a tool to help pilots better visualize weather data.  It is not intended as a substitute for an official pre-flight weather briefing.

22:49:54 UTC

KDVN METAR
Davenport Municipal Airport
Davenport, Iowa, USA
Current

58 mins ago

KDVN 222152Z AUTO 32003KT 10SM CLR 02/M04 A3015 RMK AO2 SLP215 T00221039
Observed
Nov-22 @ 21:52 UTC
Wind
  • 320° at 3 KTS
Visibility
10 SM
Flight Rules
VFR
Cloud Levels
  • Clear skies
Temperature
C / 36°F
Dewpoint
-4°C / 25°F
Humidity
65%
Altimeter
30.15" Hg
Pressure
1021.02 hPa
Previous

2 hours ago

KDVN 222052Z AUTO 00000KT 10SM CLR 03/M04 A3016 RMK AO2 SLP216 T00281039 56028
Observed
Nov-22 @ 20:52 UTC
Visibility
10 SM
Flight Rules
VFR
Cloud Levels
  • Clear skies
Temperature
C / 37°F
Dewpoint
-4°C / 25°F
Humidity
60%
Altimeter
30.16" Hg
Pressure
1021.32 hPa
Previous

3 hours ago

KDVN 221952Z AUTO 34003KT 10SM CLR 02/M04 A3017 RMK AO2 SLP223 T00221044
Observed
Nov-22 @ 19:52 UTC
Wind
  • 340° at 3 KTS
Visibility
10 SM
Flight Rules
VFR
Cloud Levels
  • Clear skies
Temperature
C / 36°F
Dewpoint
-4°C / 25°F
Humidity
65%
Altimeter
30.17" Hg
Pressure
1021.72 hPa